CYLD

Chapleau Airport

Chapleau, Ontario, Canada
METAR CYLD 170100Z 31005KT 260V350 6SM -SN OVC008 01/00 A2970 RMK SC8 LAST STFD OBS/NEXT 171000 UTC SLP082
Observed Flight Rules
Oct-17 @ 01:00 UTC (3 hours ago) Instrument Flight Rules
Wind Visibility Clouds Conditions
310° at 5 knots 6 miles
  • Overcast at 800' AGL
  • Light Snow
Temperatures Readings
Current 1°C / 34°F
Dewpoint 0°C / 32°F
Humidity 93%
Altimeter 29.7" Hg
Pressure 1008.2 hPa
Elevation 447
METAR CYLD 170100Z 31005KT 260V350 6SM -SN OVC008 01/00 A2970 RMK SC8 LAST STFD OBS/NEXT 171000 UTC SLP082
Observed Flight Rules
Oct-17 @ 01:00 UTC
(3 hours ago)
IFR
Wind Visibility
310° at 5 knots 6 miles
Clouds
  • Overcast at 800' AGL
Conditions
  • Light Snow
Temperature Dewpoint
1°C / 34°F 0°C / 32°F
Humidity Altimeter Pressure
93% 29.7" Hg 1008.2 hPa